Time;durP1;ratioP1;P1;durP2;ratioP2;P2;SDS_P1;SDS_P2;PMS_P1;PMS_P2;Temp;Humidity;BMP_temperature;BMP_pressure;BME280_temperature;BME280_humidity;BME280_pressure;Samples;Min_cycle;Max_cycle;Signal;HPM_P1;HPM_P2
2022/08/19 00:00:24;;;;;;;4.82;4.30;;;;;;;26.04;46.83;97797.31;5095465;28;20202;-58
2022/08/19 00:02:51;;;;;;;6.80;4.63;;;;;;;26.11;47.19;97803.38;5095920;28;20171;-59
2022/08/19 00:05:18;;;;;;;4.78;4.47;;;;;;;26.05;47.48;97794.47;5095408;28;20188;-58
2022/08/19 00:07:43;;;;;;;5.38;4.63;;;;;;;26.10;47.50;97796.44;5095321;28;20723;-57
2022/08/19 00:10:10;;;;;;;4.85;4.55;;;;;;;26.17;47.72;97805.16;5095258;28;20191;-57
2022/08/19 00:12:37;;;;;;;5.03;4.53;;;;;;;26.17;47.14;97802.50;5095270;28;20183;-57
2022/08/19 00:15:05;;;;;;;6.55;4.75;;;;;;;26.22;47.44;97805.31;5095487;28;20176;-57
2022/08/19 00:17:30;;;;;;;5.10;4.70;;;;;;;26.25;46.99;97803.03;5095455;28;20232;-57
2022/08/19 00:19:56;;;;;;;5.00;4.50;;;;;;;26.13;47.37;97807.44;5095099;28;20172;-57
2022/08/19 00:22:21;;;;;;;5.15;4.75;;;;;;;26.04;47.74;97797.31;5095013;28;20203;-57
2022/08/19 00:24:46;;;;;;;5.22;4.75;;;;;;;25.98;47.50;97803.50;5094965;28;20174;-57
2022/08/19 00:27:13;;;;;;;4.97;4.55;;;;;;;25.85;48.06;97801.75;5094846;28;20172;-57
2022/08/19 00:29:38;;;;;;;5.90;5.30;;;;;;;25.91;48.16;97803.56;5094841;28;20245;-57
2022/08/19 00:32:05;;;;;;;7.22;5.07;;;;;;;25.94;48.03;97807.63;5095143;28;20176;-57
2022/08/19 00:34:30;;;;;;;5.70;5.13;;;;;;;25.94;48.22;97792.50;5095635;28;20180;-57
2022/08/19 00:36:57;;;;;;;5.40;4.95;;;;;;;25.94;47.99;97797.00;5094794;28;20262;-57
2022/08/19 00:39:23;;;;;;;5.43;4.85;;;;;;;25.86;48.29;97783.97;5094764;28;20202;-57
2022/08/19 00:41:49;;;;;;;5.10;4.60;;;;;;;25.83;47.96;97787.06;5094995;28;20633;-57
2022/08/19 00:44:21;;;;;;;4.32;4.03;;;;;;;25.83;48.04;97779.13;5094935;28;20175;-57
2022/08/19 00:46:49;;;;;;;6.95;4.57;;;;;;;25.81;47.88;97781.16;5094980;28;20160;-57
2022/08/19 00:49:17;;;;;;;5.35;4.85;;;;;;;25.61;48.71;97773.34;5094473;28;20176;-57
2022/08/19 00:51:46;;;;;;;4.25;3.95;;;;;;;25.49;48.49;97759.16;5094327;28;20270;-57
2022/08/19 00:54:13;;;;;;;5.72;5.03;;;;;;;25.64;48.57;97766.81;5094793;28;20216;-57
2022/08/19 00:56:39;;;;;;;5.38;4.53;;;;;;;25.62;48.83;97771.53;5094457;28;20626;-57
2022/08/19 00:59:08;;;;;;;4.75;4.35;;;;;;;25.60;48.69;97763.78;5094394;28;20226;-57
2022/08/19 01:01:40;;;;;;;4.07;3.78;;;;;;;25.56;48.18;97759.13;5094219;28;20599;-57
2022/08/19 01:04:06;;;;;;;5.53;4.70;;;;;;;25.54;48.51;97754.03;5094598;28;20225;-57
2022/08/19 01:06:33;;;;;;;4.45;4.15;;;;;;;25.58;48.45;97760.53;5094790;28;20175;-56
2022/08/19 01:08:59;;;;;;;7.35;4.53;;;;;;;25.49;48.34;97753.06;5093871;28;20237;-56
2022/08/19 01:11:30;;;;;;;4.95;4.40;;;;;;;25.50;48.17;97747.56;5094004;28;20706;-57
2022/08/19 01:13:55;;;;;;;4.18;3.88;;;;;;;25.58;47.96;97755.25;5094115;28;20160;-59
2022/08/19 01:16:23;;;;;;;4.72;4.28;;;;;;;25.55;48.24;97754.88;5094314;28;20168;-57
2022/08/19 01:18:49;;;;;;;7.13;3.78;;;;;;;25.50;47.78;97736.97;5094023;28;20217;-57
2022/08/19 01:21:30;;;;;;;4.88;4.45;;;;;;;25.58;47.67;97741.16;5093942;28;20172;-57
2022/08/19 01:23:56;;;;;;;4.20;3.90;;;;;;;25.54;47.66;97732.84;5094210;28;20751;-57
2022/08/19 01:26:23;;;;;;;7.03;4.00;;;;;;;25.58;47.48;97744.66;5093842;28;20179;-57
2022/08/19 01:28:51;;;;;;;5.53;4.07;;;;;;;25.59;47.08;97740.97;5093819;28;20172;-57
2022/08/19 01:31:21;;;;;;;4.45;4.05;;;;;;;25.49;48.00;97739.81;5093709;28;20278;-57
2022/08/19 01:33:47;;;;;;;4.90;4.53;;;;;;;25.50;48.07;97741.44;5093974;28;20172;-57
2022/08/19 01:36:22;;;;;;;5.07;4.53;;;;;;;25.46;47.82;97740.25;5094141;28;20172;-57
2022/08/19 01:38:48;;;;;;;6.03;4.30;;;;;;;25.40;48.29;97743.75;5093939;28;20182;-57
2022/08/19 01:41:14;;;;;;;7.07;4.43;;;;;;;25.31;48.87;97740.53;5093579;28;20325;-57
2022/08/19 01:43:39;;;;;;;4.70;4.30;;;;;;;25.25;49.09;97741.41;5093822;28;20225;-58
2022/08/19 01:46:05;;;;;;;4.72;4.40;;;;;;;25.20;49.15;97754.44;5093452;28;20186;-58
2022/08/19 01:48:43;;;;;;;5.35;4.80;;;;;;;25.23;49.43;97754.03;5093420;28;20179;-58
2022/08/19 01:51:10;;;;;;;5.65;4.18;;;;;;;25.09;49.31;97741.84;5075164;28;20648;-58
2022/08/19 01:53:37;;;;;;;4.78;4.28;;;;;;;25.21;49.14;97779.91;5093294;28;20199;-58
2022/08/19 01:56:04;;;;;;;5.30;4.90;;;;;;;25.16;49.69;97782.38;5093296;28;20175;-58
2022/08/19 01:58:35;;;;;;;5.55;4.57;;;;;;;25.15;49.63;97770.16;5093280;28;20176;-58
2022/08/19 02:01:01;;;;;;;5.85;5.35;;;;;;;25.15;49.75;97778.13;5093443;28;20167;-58
2022/08/19 02:03:26;;;;;;;4.93;4.50;;;;;;;25.04;50.12;97768.19;5093186;28;20168;-58
2022/08/19 02:05:59;;;;;;;5.28;4.88;;;;;;;25.18;50.00;97785.63;5093077;28;20229;-58
2022/08/19 02:08:25;;;;;;;6.35;4.70;;;;;;;25.20;49.93;97791.50;5093037;28;20564;-58
2022/08/19 02:10:51;;;;;;;5.72;5.22;;;;;;;25.20;49.76;97794.16;5092924;28;20319;-58
2022/08/19 02:13:16;;;;;;;5.72;4.85;;;;;;;25.08;49.97;97795.84;5093088;28;20644;-58
2022/08/19 02:15:42;;;;;;;5.35;4.95;;;;;;;25.04;50.05;97793.84;5092873;28;20570;-58
2022/08/19 02:18:08;;;;;;;4.88;4.45;;;;;;;25.04;49.98;97794.66;5092863;28;20216;-58
2022/08/19 02:20:34;;;;;;;6.25;5.43;;;;;;;24.94;50.21;97783.69;5092629;28;20199;-58
2022/08/19 02:23:01;;;;;;;5.22;4.55;;;;;;;25.03;50.41;97808.91;5092363;28;20167;-58
2022/08/19 02:25:27;;;;;;;5.25;4.75;;;;;;;24.86;50.58;97810.41;5092978;28;20261;-58
2022/08/19 02:27:53;;;;;;;6.28;5.22;;;;;;;24.84;50.87;97803.69;5092703;28;20185;-58
2022/08/19 02:30:20;;;;;;;4.90;4.50;;;;;;;24.87;50.75;97819.97;5092861;28;20283;-58
2022/08/19 02:32:46;;;;;;;5.13;4.70;;;;;;;24.86;50.82;97821.00;5092580;28;20176;-58
2022/08/19 02:35:13;;;;;;;5.40;4.85;;;;;;;24.78;50.95;97815.91;5092524;28;20172;-58
2022/08/19 02:40:22;;;;;;;5.57;5.07;;;;;;;24.58;51.68;97811.69;5093384;28;20163;-58
2022/08/19 02:42:48;;;;;;;8.63;4.93;;;;;;;24.62;51.46;97826.94;5092493;28;20168;-58
2022/08/19 02:45:13;;;;;;;5.55;5.15;;;;;;;24.60;51.61;97834.28;5092994;28;20202;-58
2022/08/19 02:47:39;;;;;;;8.52;4.63;;;;;;;24.54;51.85;97832.44;5092427;28;20176;-58
2022/08/19 02:50:05;;;;;;;5.10;4.70;;;;;;;24.49;51.88;97826.94;5092547;28;20195;-58
2022/08/19 02:52:32;;;;;;;7.05;4.93;;;;;;;24.47;51.67;97823.72;5092051;28;20233;-59
2022/08/19 02:54:58;;;;;;;5.38;4.88;;;;;;;24.53;52.09;97841.41;5092314;28;20225;-58
2022/08/19 02:57:24;;;;;;;6.45;4.80;;;;;;;24.62;51.49;97831.44;5092855;28;20168;-58
2022/08/19 02:59:49;;;;;;;5.88;4.97;;;;;;;24.60;51.60;97839.59;5092208;28;20735;-58
2022/08/19 03:02:15;;;;;;;5.15;4.40;;;;;;;24.56;51.70;97837.53;5092187;28;20199;-58
2022/08/19 03:04:41;;;;;;;5.35;4.85;;;;;;;24.56;51.60;97843.63;5092412;28;20172;-58
2022/08/19 03:07:07;;;;;;;7.13;4.82;;;;;;;24.58;51.69;97846.91;5092422;28;20254;-58
2022/08/19 03:09:35;;;;;;;5.72;5.05;;;;;;;24.52;51.94;97858.31;5092075;28;20168;-58
2022/08/19 03:12:02;;;;;;;5.30;4.90;;;;;;;24.53;51.93;97851.16;5092115;28;20188;-58
2022/08/19 03:14:30;;;;;;;5.50;5.07;;;;;;;24.35;52.44;97832.47;5092604;28;20179;-59
2022/08/19 03:16:56;;;;;;;8.48;4.82;;;;;;;24.39;52.65;97853.00;5092081;28;20183;-58
2022/08/19 03:19:21;;;;;;;5.45;5.05;;;;;;;24.40;52.38;97846.72;5092285;28;20560;-58
2022/08/19 03:21:47;;;;;;;5.60;5.10;;;;;;;24.36;52.68;97850.78;5092008;28;20203;-58
2022/08/19 03:24:15;;;;;;;5.50;5.10;;;;;;;24.34;52.58;97850.19;5091957;28;20179;-58
2022/08/19 03:26:42;;;;;;;4.88;4.47;;;;;;;24.33;52.49;97858.31;5092223;28;20251;-58
2022/08/19 03:29:10;;;;;;;5.75;5.05;;;;;;;24.28;52.64;97858.94;5092203;28;20258;-58
2022/08/19 03:31:35;;;;;;;7.22;4.78;;;;;;;24.23;52.71;97850.78;5091879;28;20199;-58
2022/08/19 03:34:01;;;;;;;5.88;5.32;;;;;;;24.07;52.65;97836.34;5095657;28;20172;-58
2022/08/19 03:36:27;;;;;;;5.03;4.63;;;;;;;24.30;52.62;97862.19;5095954;28;20200;-58
2022/08/19 03:38:55;;;;;;;7.55;5.00;;;;;;;24.31;52.44;97871.72;5096272;28;20168;-58
2022/08/19 03:41:24;;;;;;;5.22;4.80;;;;;;;24.33;52.77;97880.25;5095847;28;20175;-58
2022/08/19 03:43:51;;;;;;;5.38;4.85;;;;;;;24.27;52.95;97872.34;5095888;28;20165;-58
2022/08/19 03:46:21;;;;;;;5.30;4.80;;;;;;;24.23;52.85;97872.97;5095849;28;20168;-58
2022/08/19 03:48:48;;;;;;;6.10;5.13;;;;;;;24.13;53.01;97859.34;5095714;28;20763;-58
2022/08/19 03:51:33;;;;;;;5.10;4.63;;;;;;;24.18;52.97;97873.56;5095522;28;20683;-58
2022/08/19 03:54:00;;;;;;;5.97;5.45;;;;;;;24.13;53.05;97877.84;5095945;28;20195;-58
2022/08/19 03:56:27;;;;;;;5.60;5.03;;;;;;;24.11;53.47;97870.09;5095903;28;20586;-58
2022/08/19 03:58:53;;;;;;;6.60;5.53;;;;;;;23.88;53.35;97839.81;5095814;28;20561;-58
2022/08/19 04:01:21;;;;;;;5.28;4.82;;;;;;;24.04;53.70;97870.09;5095507;28;20168;-56
2022/08/19 04:03:48;;;;;;;5.72;4.70;;;;;;;23.92;54.08;97866.41;5095747;28;20182;-58
2022/08/19 04:06:20;;;;;;;7.40;5.25;;;;;;;23.89;54.29;97871.28;5095382;28;20237;-58
2022/08/19 04:08:46;;;;;;;5.30;4.80;;;;;;;23.80;54.41;97862.72;5095676;28;20545;-58
2022/08/19 04:11:14;;;;;;;7.80;5.53;;;;;;;23.94;54.13;97870.72;5095253;28;20692;-58
2022/08/19 04:13:43;;;;;;;5.68;5.18;;;;;;;23.86;54.63;97879.63;5095256;28;20204;-58
2022/08/19 04:16:09;;;;;;;5.95;5.40;;;;;;;23.88;54.73;97879.44;5095216;28;20782;-58
2022/08/19 04:18:37;;;;;;;5.63;5.05;;;;;;;23.88;54.93;97879.44;5095180;28;20168;-58
2022/08/19 04:21:02;;;;;;;6.35;5.75;;;;;;;23.77;55.12;97873.69;5095421;28;20171;-58
2022/08/19 04:23:28;;;;;;;6.35;5.30;;;;;;;23.88;54.77;97868.88;5095121;28;20563;-58
2022/08/19 04:25:54;;;;;;;5.90;5.40;;;;;;;24.00;54.74;97867.25;5095020;28;20644;-58
2022/08/19 04:28:21;;;;;;;5.30;4.90;;;;;;;23.86;54.99;97866.41;5094992;28;20672;-58
2022/08/19 04:30:49;;;;;;;6.03;5.22;;;;;;;23.96;54.85;97860.75;5095197;28;20241;-58
2022/08/19 04:33:18;;;;;;;5.43;4.93;;;;;;;23.86;55.25;97861.91;5094938;28;20664;-58
2022/08/19 04:35:46;;;;;;;5.75;5.15;;;;;;;23.79;55.31;97860.31;5094801;28;20178;-58
2022/08/19 04:38:13;;;;;;;5.47;4.97;;;;;;;23.80;55.04;97861.91;5095015;28;20240;-58
2022/08/19 04:43:27;;;;;;;5.55;5.05;;;;;;;23.87;54.72;97868.03;5095306;28;20163;-58
2022/08/19 04:45:53;;;;;;;5.65;5.15;;;;;;;23.88;55.11;97874.97;5094251;28;20160;-58
2022/08/19 04:48:26;;;;;;;5.60;5.10;;;;;;;23.82;55.18;97862.53;5094599;28;20176;-58
2022/08/19 04:51:00;;;;;;;6.63;5.15;;;;;;;24.04;54.91;97870.09;5094776;28;20196;-56
2022/08/19 04:53:30;;;;;;;6.20;5.18;;;;;;;23.83;55.45;97875.53;5094350;28;20231;-56
2022/08/19 04:55:58;;;;;;;5.43;4.93;;;;;;;23.83;55.76;97876.56;5094517;28;20163;-58
2022/08/19 04:58:26;;;;;;;6.00;5.20;;;;;;;23.81;55.60;97874.91;5094977;28;20171;-58
2022/08/19 05:00:51;;;;;;;5.07;4.65;;;;;;;23.89;55.65;97879.22;5094367;28;20172;-57
2022/08/19 05:03:17;;;;;;;7.53;5.38;;;;;;;24.01;55.34;97882.09;5094857;28;20174;-57
2022/08/19 05:05:45;;;;;;;11.05;5.13;;;;;;;24.08;55.40;97881.09;5094292;28;20663;-57
2022/08/19 05:08:11;;;;;;;5.93;4.90;;;;;;;24.19;55.31;97883.94;5094205;28;20183;-57
2022/08/19 05:10:39;;;;;;;7.35;5.32;;;;;;;24.18;55.26;97874.38;5094156;28;20275;-57
2022/08/19 05:13:05;;;;;;;7.60;5.28;;;;;;;24.35;54.73;97882.72;5094371;28;20606;-56
2022/08/19 05:15:30;;;;;;;5.47;4.90;;;;;;;24.35;54.51;97877.44;5094113;28;20203;-56
2022/08/19 05:23:25;;;;;;;8.15;5.18;;;;;;;24.43;54.65;97891.25;5094481;28;20171;-57
2022/08/19 05:25:51;;;;;;;5.68;4.97;;;;;;;24.48;54.51;97888.00;5094179;28;20168;-57
2022/08/19 05:28:18;;;;;;;6.18;5.28;;;;;;;24.46;53.87;97864.41;5093845;28;20176;-56
2022/08/19 05:30:44;;;;;;;6.70;5.03;;;;;;;24.73;53.64;97895.13;5094043;28;20199;-57
2022/08/19 05:33:11;;;;;;;5.55;5.05;;;;;;;24.84;53.85;97896.34;5094045;28;20171;-56
2022/08/19 05:35:39;;;;;;;5.80;5.30;;;;;;;24.89;53.46;97896.50;5093984;28;20236;-57
2022/08/19 05:38:07;;;;;;;4.72;4.40;;;;;;;24.90;53.50;97898.16;5093897;28;20175;-56
2022/08/19 05:40:35;;;;;;;5.88;5.00;;;;;;;24.86;53.83;97884.53;5093563;28;20179;-57
2022/08/19 05:43:03;;;;;;;5.70;5.20;;;;;;;24.89;53.70;97886.75;5093538;28;20179;-57
2022/08/19 05:45:29;;;;;;;5.82;5.00;;;;;;;24.98;53.69;97892.63;5093535;28;20176;-56
2022/08/19 05:47:54;;;;;;;5.20;4.80;;;;;;;24.99;53.22;97881.84;5093987;28;20221;-57
2022/08/19 05:50:20;;;;;;;5.95;5.18;;;;;;;25.15;53.14;97889.34;5093327;28;20195;-57
2022/08/19 05:52:45;;;;;;;6.15;5.55;;;;;;;25.17;52.83;97875.84;5093209;28;20207;-57
2022/08/19 05:55:11;;;;;;;5.50;4.90;;;;;;;25.36;52.68;97891.72;5093432;28;20186;-57
2022/08/19 05:57:37;;;;;;;5.80;5.25;;;;;;;25.26;52.47;97861.41;5092947;28;20236;-57
2022/08/19 06:00:11;;;;;;;8.05;5.22;;;;;;;25.53;51.86;97889.38;5075055;28;20264;-57
2022/08/19 06:02:36;;;;;;;5.57;4.85;;;;;;;25.58;51.86;97893.03;5093132;28;20293;-57
2022/08/19 06:05:08;;;;;;;6.63;5.30;;;;;;;25.63;51.94;97895.88;5093402;28;20266;-57
2022/08/19 06:07:35;;;;;;;4.88;4.53;;;;;;;25.75;51.54;97899.47;5093388;28;20248;-57
2022/08/19 06:10:00;;;;;;;5.65;5.15;;;;;;;25.67;51.93;97886.44;5092995;28;20192;-57
2022/08/19 06:12:30;;;;;;;4.97;4.55;;;;;;;25.85;51.28;97897.19;5093016;28;20538;-57
2022/08/19 06:14:56;;;;;;;5.53;5.03;;;;;;;25.96;51.20;97896.50;5093219;28;20195;-57
2022/08/19 06:17:24;;;;;;;5.22;4.82;;;;;;;26.10;51.16;97908.66;5093209;28;20265;-57
2022/08/19 06:19:49;;;;;;;6.13;4.65;;;;;;;26.25;50.69;97911.81;5093168;28;20160;-57
2022/08/19 06:22:15;;;;;;;5.47;4.35;;;;;;;26.34;50.16;97909.69;5092839;28;20171;-57
2022/08/19 06:24:41;;;;;;;5.72;5.22;;;;;;;26.49;50.03;97913.69;5092721;28;20184;-57
2022/08/19 06:27:07;;;;;;;5.95;5.45;;;;;;;26.52;50.12;97918.53;5093078;28;20168;-57
2022/08/19 06:29:32;;;;;;;5.43;4.90;;;;;;;26.73;49.35;97920.84;5092660;28;20175;-57
2022/08/19 06:31:59;;;;;;;5.13;4.63;;;;;;;26.87;49.21;97924.19;5092944;28;20180;-57
2022/08/19 06:34:27;;;;;;;5.15;4.65;;;;;;;26.98;49.20;97926.91;5092640;28;20172;-57
2022/08/19 06:36:54;;;;;;;6.47;4.90;;;;;;;27.15;49.06;97921.81;5092428;28;20175;-57
2022/08/19 06:39:24;;;;;;;7.55;4.80;;;;;;;27.25;48.79;97925.63;5092843;28;20583;-58
2022/08/19 06:41:52;;;;;;;4.88;4.47;;;;;;;27.41;47.93;97929.53;5092538;28;20246;-58
2022/08/19 06:44:20;;;;;;;5.85;4.93;;;;;;;27.50;47.95;97930.84;5092492;28;20176;-58
2022/08/19 06:46:45;;;;;;;5.53;4.30;;;;;;;27.54;48.10;97918.75;5092698;28;20565;-58
2022/08/19 06:49:13;;;;;;;5.40;4.85;;;;;;;27.71;47.91;97931.22;5092374;28;20231;-58
2022/08/19 06:51:41;;;;;;;5.70;5.28;;;;;;;27.85;47.60;97927.34;5092411;28;20207;-58
2022/08/19 06:54:07;;;;;;;6.38;4.57;;;;;;;27.97;47.33;97933.53;5092365;28;20176;-58
2022/08/19 06:56:34;;;;;;;6.88;5.10;;;;;;;28.04;47.57;97936.91;5092567;28;20168;-57
2022/08/19 06:59:09;;;;;;;4.45;4.10;;;;;;;28.21;46.81;97937.88;5092249;28;20183;-58
2022/08/19 07:01:40;;;;;;;5.18;4.57;;;;;;;28.34;47.28;97932.34;5092219;28;20167;-57
2022/08/19 07:04:08;;;;;;;5.57;5.07;;;;;;;28.50;46.94;97930.94;5092201;28;20238;-57
2022/08/19 07:06:34;;;;;;;6.75;4.93;;;;;;;28.65;46.43;97934.75;5092440;28;20254;-58
2022/08/19 07:08:59;;;;;;;6.95;5.25;;;;;;;28.80;46.57;97929.78;5091835;28;20655;-58
2022/08/19 07:11:26;;;;;;;11.05;6.03;;;;;;;28.94;45.04;97933.84;5091983;28;20196;-58
2022/08/19 07:13:51;;;;;;;10.38;6.65;;;;;;;29.12;44.41;97940.91;5092009;28;20629;-58
2022/08/19 07:16:19;;;;;;;15.60;7.18;;;;;;;29.22;44.13;97923.28;5092351;28;20251;-59
2022/08/19 07:18:46;;;;;;;9.70;7.10;;;;;;;29.32;44.20;97926.16;5092390;28;20176;-59
2022/08/19 07:21:21;;;;;;;12.77;7.00;;;;;;;29.40;44.23;97928.47;5092054;28;20175;-59
2022/08/19 07:23:48;;;;;;;9.68;6.15;;;;;;;29.48;43.95;97933.44;5092293;28;20567;-58
2022/08/19 07:26:19;;;;;;;9.95;6.35;;;;;;;29.56;43.61;97935.75;5092247;28;20175;-59
2022/08/19 07:28:45;;;;;;;6.82;6.13;;;;;;;29.67;42.71;97929.56;5092072;28;20160;-58
2022/08/19 07:31:13;;;;;;;9.73;5.63;;;;;;;29.73;42.81;97938.50;5091869;28;20203;-59
2022/08/19 07:33:39;;;;;;;10.88;6.70;;;;;;;29.82;42.72;97934.41;5091948;28;20168;-58
2022/08/19 07:36:07;;;;;;;7.60;6.20;;;;;;;29.90;42.92;97939.38;5091912;28;20168;-59
2022/08/19 07:38:33;;;;;;;6.32;5.70;;;;;;;29.99;42.05;97933.41;5091881;28;20252;-58
2022/08/19 07:40:59;;;;;;;8.27;6.28;;;;;;;30.04;42.28;97941.50;5091854;28;20172;-58
2022/08/19 07:43:26;;;;;;;12.32;6.28;;;;;;;30.12;42.86;97930.47;5092432;28;20266;-58
2022/08/19 07:45:55;;;;;;;10.43;6.60;;;;;;;30.13;42.61;97939.28;5091836;28;20195;-59
2022/08/19 07:48:24;;;;;;;8.00;6.55;;;;;;;30.18;42.58;97916.16;5091744;28;20711;-59
2022/08/19 07:50:50;;;;;;;10.60;7.00;;;;;;;30.23;42.58;97929.59;5091654;28;20188;-59
2022/08/19 07:53:15;;;;;;;13.20;7.10;;;;;;;30.32;41.79;97938.03;5091618;28;20204;-59
2022/08/19 07:55:41;;;;;;;8.80;6.95;;;;;;;30.37;41.93;97933.56;5091684;28;20706;-58
2022/08/19 07:58:06;;;;;;;8.38;7.00;;;;;;;30.39;42.23;97928.81;5091944;28;20168;-59
2022/08/19 08:00:32;;;;;;;10.43;6.35;;;;;;;30.41;42.53;97926.69;5091636;28;20168;-59
2022/08/19 08:02:57;;;;;;;13.82;6.63;;;;;;;30.51;42.32;97934.88;5091863;28;20233;-59
2022/08/19 08:10:57;;;;;;;10.65;6.20;;;;;;;30.66;41.96;97940.47;5029328;28;20250;-59
2022/08/19 08:13:23;;;;;;;13.60;6.50;;;;;;;30.56;41.98;97910.94;5059508;28;20631;-58
2022/08/19 08:15:49;;;;;;;11.18;7.38;;;;;;;30.77;41.80;97936.91;5091551;28;20259;-59
2022/08/19 08:18:15;;;;;;;10.02;6.25;;;;;;;30.82;41.69;97934.31;5091457;28;20724;-59
2022/08/19 08:20:40;;;;;;;12.93;6.47;;;;;;;30.85;41.25;97933.81;5094298;28;20172;-58
2022/08/19 08:25:50;;;;;;;9.30;6.30;;;;;;;30.73;41.69;97924.28;5095285;28;20163;-58
2022/08/19 08:28:19;;;;;;;11.23;6.53;;;;;;;30.84;41.88;97932.22;5095068;28;20164;-59
2022/08/19 08:30:47;;;;;;;12.57;7.07;;;;;;;30.94;41.65;97929.69;5095153;28;20195;-59
2022/08/19 08:33:15;;;;;;;7.35;6.18;;;;;;;30.97;40.75;97921.19;5095194;28;20179;-59
2022/08/19 08:35:45;;;;;;;11.70;6.35;;;;;;;31.02;40.47;97923.13;5095210;28;20163;-59
2022/08/19 08:38:11;;;;;;;8.88;7.45;;;;;;;31.03;41.15;97920.22;5094761;28;20172;-59
2022/08/19 08:40:39;;;;;;;11.88;6.22;;;;;;;31.13;42.00;97920.31;5095082;28;20176;-59
2022/08/19 08:43:11;;;;;;;6.97;6.35;;;;;;;31.21;41.21;97927.16;5094791;28;20171;-59
2022/08/19 08:45:46;;;;;;;7.53;6.47;;;;;;;31.29;40.84;97922.19;5094965;28;20252;-59
2022/08/19 08:48:24;;;;;;;11.63;6.03;;;;;;;31.39;41.21;97924.19;5077407;28;20182;-58
2022/08/19 08:50:53;;;;;;;7.20;6.25;;;;;;;31.48;40.60;97918.13;5095145;28;20180;-58
2022/08/19 08:53:20;;;;;;;7.65;6.18;;;;;;;31.54;40.82;97914.47;5094469;28;20595;-58
2022/08/19 08:55:47;;;;;;;11.70;5.95;;;;;;;31.60;40.54;97907.31;5094530;28;20179;-58
2022/08/19 08:58:47;;;;;;;10.15;6.22;;;;;;;31.72;40.23;97913.38;5094468;28;20171;-58
2022/08/19 09:01:13;;;;;;;7.05;5.97;;;;;;;31.76;41.15;97899.22;5086970;28;20209;-58
2022/08/19 09:03:41;;;;;;;10.07;6.20;;;;;;;31.92;40.29;97909.03;5094657;28;20172;-58
2022/08/19 09:06:31;;;;;;;8.25;5.82;;;;;;;31.97;40.53;97901.06;5094646;28;20204;-58
2022/08/19 09:09:06;;;;;;;12.90;6.22;;;;;;;32.05;40.11;97900.59;5093726;28;20188;-58
2022/08/19 09:11:44;;;;;;;8.18;5.93;;;;;;;32.11;39.85;97896.91;5094763;28;20795;-58
2022/08/19 09:14:10;;;;;;;11.50;6.78;;;;;;;32.13;39.59;97893.97;5094325;28;20190;-58
2022/08/19 09:16:35;;;;;;;11.48;7.60;;;;;;;32.07;39.29;97887.75;5094399;28;20175;-58
2022/08/19 09:19:05;;;;;;;10.90;5.95;;;;;;;32.16;39.42;97888.91;5094076;28;20228;-58
2022/08/19 09:21:30;;;;;;;7.53;6.10;;;;;;;32.05;39.67;97865.78;5094300;28;20163;-60
2022/08/19 09:23:57;;;;;;;6.35;5.75;;;;;;;32.27;39.33;97885.31;5094021;28;20168;-60
2022/08/19 09:26:23;;;;;;;6.57;5.97;;;;;;;32.35;38.47;97882.16;5094129;28;20233;-58
2022/08/19 09:28:52;;;;;;;6.50;5.60;;;;;;;32.49;38.59;97883.34;5093895;28;20561;-56
2022/08/19 09:31:21;;;;;;;8.77;6.63;;;;;;;32.44;37.66;97874.44;5093809;28;20211;-59
2022/08/19 09:33:47;;;;;;;6.63;5.93;;;;;;;32.45;38.05;97882.22;5094077;28;20678;-59
2022/08/19 09:36:15;;;;;;;13.32;5.28;;;;;;;32.53;37.11;97887.09;5093964;28;20175;-60
2022/08/19 09:38:41;;;;;;;6.13;4.70;;;;;;;32.67;36.73;97893.66;5093588;28;20662;-59
2022/08/19 09:41:13;;;;;;;6.90;4.75;;;;;;;32.67;36.64;97874.91;5093875;28;20180;-59
2022/08/19 09:43:39;;;;;;;9.65;5.45;;;;;;;32.82;36.27;97885.72;5094204;28;20653;-59
2022/08/19 09:46:09;;;;;;;5.13;4.32;;;;;;;32.88;35.84;97884.69;5093531;28;20175;-59
2022/08/19 09:48:35;;;;;;;10.65;4.82;;;;;;;32.97;35.46;97879.66;5093728;28;20179;-59
2022/08/19 09:51:15;;;;;;;5.00;4.53;;;;;;;33.08;35.35;97881.31;5093102;28;20203;-59
2022/08/19 09:53:41;;;;;;;5.38;4.65;;;;;;;33.18;35.32;97881.38;5093636;28;20203;-58
2022/08/19 09:56:07;;;;;;;5.32;4.50;;;;;;;33.27;34.20;97879.84;5093286;28;20602;-59
2022/08/19 09:58:34;;;;;;;5.15;4.78;;;;;;;33.33;34.76;97866.19;5093284;28;20176;-59
2022/08/19 10:01:01;;;;;;;4.97;4.47;;;;;;;33.39;34.25;97872.38;5093464;28;20172;-59
2022/08/19 10:03:28;;;;;;;7.63;4.30;;;;;;;33.48;34.01;97874.28;5093222;28;20175;-59
2022/08/19 10:05:55;;;;;;;8.18;5.03;;;;;;;33.51;33.66;97863.00;5093707;28;20675;-59
2022/08/19 10:08:27;;;;;;;17.77;10.32;;;;;;;33.64;32.84;97867.09;5093376;28;20184;-59
2022/08/19 10:10:53;;;;;;;20.98;15.15;;;;;;;33.72;33.22;97870.06;5093276;28;20196;-59
2022/08/19 10:13:22;;;;;;;23.20;12.82;;;;;;;33.86;32.28;97863.13;5093269;28;20557;-59
2022/08/19 10:15:50;;;;;;;7.20;5.70;;;;;;;33.91;32.67;97865.81;5093012;28;20250;-59
2022/08/19 10:18:17;;;;;;;5.32;4.45;;;;;;;34.00;32.35;97861.56;5093196;28;20176;-57
2022/08/19 10:20:45;;;;;;;5.00;4.47;;;;;;;34.05;32.55;97850.78;5093123;28;20228;-58
2022/08/19 10:23:11;;;;;;;5.53;4.03;;;;;;;34.24;32.25;97859.94;5093094;28;20171;-57
2022/08/19 10:25:37;;;;;;;4.70;4.28;;;;;;;34.20;31.42;97848.13;5092776;28;20232;-57
2022/08/19 10:28:04;;;;;;;7.20;4.82;;;;;;;34.37;32.01;97848.69;5092729;28;20263;-58
2022/08/19 10:30:29;;;;;;;5.97;4.38;;;;;;;34.38;30.87;97852.97;5092948;28;20196;-58
2022/08/19 10:32:55;;;;;;;6.13;5.40;;;;;;;34.52;30.39;97846.00;5092694;28;20178;-58
2022/08/19 10:35:20;;;;;;;5.78;4.28;;;;;;;34.59;30.68;97843.84;5092918;28;20250;-58
2022/08/19 10:37:46;;;;;;;9.75;4.47;;;;;;;34.59;30.16;97830.38;5092929;28;20163;-59
2022/08/19 10:40:13;;;;;;;4.15;3.75;;;;;;;34.69;30.22;97838.41;5092796;28;20176;-59
2022/08/19 10:42:38;;;;;;;5.60;4.53;;;;;;;34.79;30.17;97843.03;5092226;28;20176;-59
2022/08/19 10:45:05;;;;;;;5.65;4.00;;;;;;;34.81;29.83;97838.97;5092504;28;20175;-58
2022/08/19 10:47:32;;;;;;;5.20;4.35;;;;;;;35.01;30.28;97849.66;5092711;28;20225;-58
2022/08/19 10:52:44;;;;;;;6.28;4.00;;;;;;;35.42;28.96;97845.75;5092467;28;20714;-59
2022/08/19 10:57:54;;;;;;;6.82;4.18;;;;;;;35.77;28.80;97847.47;5092879;28;20238;-59
2022/08/19 11:00:21;;;;;;;5.80;4.25;;;;;;;35.96;28.92;97837.66;5092527;28;20610;-58
2022/08/19 11:02:46;;;;;;;7.22;3.90;;;;;;;36.09;28.48;97845.91;5092242;28;20167;-58
2022/08/19 11:05:13;;;;;;;6.43;3.88;;;;;;;36.14;27.56;97836.97;5092226;28;20175;-59
2022/08/19 11:07:40;;;;;;;7.50;4.50;;;;;;;36.30;27.09;97849.28;5074143;28;20565;-58
2022/08/19 11:10:06;;;;;;;4.82;3.67;;;;;;;36.41;26.65;97843.50;5092122;28;20223;-59
2022/08/19 11:12:33;;;;;;;7.15;4.30;;;;;;;36.59;26.66;97845.47;5092534;28;20175;-58
2022/08/19 11:14:58;;;;;;;4.05;3.75;;;;;;;36.38;26.01;97843.25;5092656;28;20172;-59
2022/08/19 11:17:24;;;;;;;6.43;3.85;;;;;;;36.56;26.89;97835.28;5092897;28;20259;-59
2022/08/19 11:19:49;;;;;;;4.07;3.70;;;;;;;36.75;26.80;97835.38;5092112;28;20171;-59
2022/08/19 11:22:15;;;;;;;4.35;3.95;;;;;;;37.01;25.27;97839.41;5092040;28;20171;-59
2022/08/19 11:24:41;;;;;;;6.03;3.78;;;;;;;37.08;25.15;97835.31;5092287;28;20175;-59
2022/08/19 11:27:11;;;;;;;3.95;3.65;;;;;;;37.26;25.97;97833.72;5091957;28;20644;-58
2022/08/19 11:29:40;;;;;;;4.95;3.85;;;;;;;37.13;25.81;97812.84;5091905;28;20156;-59
2022/08/19 11:32:10;;;;;;;5.80;4.28;;;;;;;37.41;25.79;97831.63;5091968;28;20168;-59
2022/08/19 11:34:36;;;;;;;4.30;3.97;;;;;;;37.56;25.59;97834.16;5092204;28;20180;-59
2022/08/19 11:37:03;;;;;;;7.68;3.72;;;;;;;37.51;25.31;97815.28;5091953;28;20230;-59
2022/08/19 11:39:31;;;;;;;4.80;3.80;;;;;;;37.69;24.96;97830.72;5091818;28;20714;-59
2022/08/19 11:42:02;;;;;;;6.18;4.03;;;;;;;37.64;24.45;97820.00;5091823;28;20226;-58
2022/08/19 11:44:30;;;;;;;7.22;4.15;;;;;;;37.68;24.68;97826.44;5091781;28;20609;-58
2022/08/19 11:46:56;;;;;;;6.35;4.13;;;;;;;37.72;25.02;97822.06;5092049;28;20179;-58
2022/08/19 11:49:21;;;;;;;6.30;4.30;;;;;;;37.80;24.67;97813.28;5091762;28;20194;-59
2022/08/19 11:51:49;;;;;;;4.65;3.78;;;;;;;37.91;24.25;97811.22;5091740;28;20235;-59
2022/08/19 11:54:16;;;;;;;5.60;4.53;;;;;;;38.02;25.04;97816.22;5092434;28;20172;-58
2022/08/19 11:56:43;;;;;;;4.63;3.83;;;;;;;38.14;24.13;97819.25;5095939;28;20206;-59